sensor_id;sensor_type;location;lat;lon;timestamp;pressure;altitude;pressure_sealevel;temperature;humidity
69318;BME280;56457;52.190;4.440;2022-09-30T00:00:09;100912.00;;;11.68;100.00
69318;BME280;56457;52.190;4.440;2022-09-30T00:01:10;100898.91;;;11.60;100.00
69318;BME280;56457;52.190;4.440;2022-09-30T00:02:10;100909.50;;;11.55;100.00
69318;BME280;56457;52.190;4.440;2022-09-30T00:03:11;100905.13;;;11.53;100.00
69318;BME280;56457;52.190;4.440;2022-09-30T00:04:14;100913.88;;;11.53;100.00
69318;BME280;56457;52.190;4.440;2022-09-30T00:05:15;100912.16;;;11.51;100.00
69318;BME280;56457;52.190;4.440;2022-09-30T00:06:15;100912.16;;;11.51;100.00
69318;BME280;56457;52.190;4.440;2022-09-30T00:07:16;100913.06;;;11.50;100.00
69318;BME280;56457;52.190;4.440;2022-09-30T00:08:16;100912.19;;;11.48;100.00
69318;BME280;56457;52.190;4.440;2022-09-30T00:09:17;100915.69;;;11.48;100.00
69318;BME280;56457;52.190;4.440;2022-09-30T00:10:17;100914.81;;;11.48;100.00
69318;BME280;56457;52.190;4.440;2022-09-30T00:11:20;100911.34;;;11.43;100.00
69318;BME280;56457;52.190;4.440;2022-09-30T00:12:21;100917.56;;;11.37;100.00
69318;BME280;56457;52.190;4.440;2022-09-30T00:13:22;100920.22;;;11.32;100.00
69318;BME280;56457;52.190;4.440;2022-09-30T00:14:23;100917.56;;;11.34;100.00
69318;BME280;56457;52.190;4.440;2022-09-30T00:15:23;100919.34;;;11.32;100.00
69318;BME280;56457;52.190;4.440;2022-09-30T00:16:26;100922.88;;;11.31;100.00
69318;BME280;56457;52.190;4.440;2022-09-30T00:17:27;100916.72;;;11.32;100.00
69318;BME280;56457;52.190;4.440;2022-09-30T00:18:27;100921.09;;;11.33;100.00
69318;BME280;56457;52.190;4.440;2022-09-30T00:19:28;100922.84;;;11.34;100.00
69318;BME280;56457;52.190;4.440;2022-09-30T00:20:28;100926.31;;;11.38;100.00
69318;BME280;56457;52.190;4.440;2022-09-30T00:21:28;100928.00;;;11.42;100.00
69318;BME280;56457;52.190;4.440;2022-09-30T00:22:29;100925.38;;;11.43;100.00
69318;BME280;56457;52.190;4.440;2022-09-30T00:23:30;100926.25;;;11.42;100.00
69318;BME280;56457;52.190;4.440;2022-09-30T00:24:30;100922.75;;;11.42;100.00
69318;BME280;56457;52.190;4.440;2022-09-30T00:25:30;100918.38;;;11.44;100.00
69318;BME280;56457;52.190;4.440;2022-09-30T00:26:32;100913.09;;;11.45;100.00
69318;BME280;56457;52.190;4.440;2022-09-30T00:27:33;100910.47;;;11.42;100.00
69318;BME280;56457;52.190;4.440;2022-09-30T00:28:34;100909.66;;;11.39;100.00
69318;BME280;56457;52.190;4.440;2022-09-30T00:29:34;100905.31;;;11.35;100.00
69318;BME280;56457;52.190;4.440;2022-09-30T00:30:34;100907.09;;;11.29;100.00
69318;BME280;56457;52.190;4.440;2022-09-30T00:31:35;100909.75;;;11.28;100.00
69318;BME280;56457;52.190;4.440;2022-09-30T00:32:36;100909.72;;;11.29;100.00
69318;BME280;56457;52.190;4.440;2022-09-30T00:33:36;100915.00;;;11.29;100.00
69318;BME280;56457;52.190;4.440;2022-09-30T00:34:36;100915.88;;;11.28;100.00
69318;BME280;56457;52.190;4.440;2022-09-30T00:35:37;100915.03;;;11.26;100.00
69318;BME280;56457;52.190;4.440;2022-09-30T00:36:51;100918.50;;;11.28;100.00
69318;BME280;56457;52.190;4.440;2022-09-30T00:37:51;100910.66;;;11.25;100.00
69318;BME280;56457;52.190;4.440;2022-09-30T00:38:52;100915.06;;;11.25;100.00
69318;BME280;56457;52.190;4.440;2022-09-30T00:39:52;100911.50;;;11.27;100.00
69318;BME280;56457;52.190;4.440;2022-09-30T00:40:53;100917.63;;;11.29;100.00
69318;BME280;56457;52.190;4.440;2022-09-30T00:41:58;100908.88;;;11.30;100.00
69318;BME280;56457;52.190;4.440;2022-09-30T00:42:59;100909.78;;;11.26;100.00
69318;BME280;56457;52.190;4.440;2022-09-30T00:44:00;100908.94;;;11.24;100.00
69318;BME280;56457;52.190;4.440;2022-09-30T00:45:05;100910.69;;;11.21;100.00
69318;BME280;56457;52.190;4.440;2022-09-30T00:46:12;100901.97;;;11.19;100.00
69318;BME280;56457;52.190;4.440;2022-09-30T00:47:26;100903.75;;;11.15;100.00
69318;BME280;56457;52.190;4.440;2022-09-30T00:48:33;100908.16;;;11.13;100.00
69318;BME280;56457;52.190;4.440;2022-09-30T00:49:34;100910.78;;;11.12;100.00
69318;BME280;56457;52.190;4.440;2022-09-30T00:50:40;100901.16;;;11.11;100.00
69318;BME280;56457;52.190;4.440;2022-09-30T00:51:52;100904.69;;;11.08;100.00
69318;BME280;56457;52.190;4.440;2022-09-30T00:53:38;100902.09;;;11.07;100.00
69318;BME280;56457;52.190;4.440;2022-09-30T00:54:43;100903.88;;;11.01;100.00
69318;BME280;56457;52.190;4.440;2022-09-30T00:55:49;100904.78;;;10.97;100.00
69318;BME280;56457;52.190;4.440;2022-09-30T00:57:01;100898.72;;;10.91;100.00
69318;BME280;56457;52.190;4.440;2022-09-30T00:58:03;100904.00;;;10.88;100.00
69318;BME280;56457;52.190;4.440;2022-09-30T00:59:13;100906.59;;;10.89;100.00
69318;BME280;56457;52.190;4.440;2022-09-30T01:00:14;100907.47;;;10.87;100.00
69318;BME280;56457;52.190;4.440;2022-09-30T01:01:15;100899.59;;;10.90;100.00
69318;BME280;56457;52.190;4.440;2022-09-30T01:02:16;100902.19;;;10.91;100.00
69318;BME280;56457;52.190;4.440;2022-09-30T01:03:18;100898.75;;;10.88;100.00
69318;BME280;56457;52.190;4.440;2022-09-30T01:04:21;100904.00;;;10.88;100.00
69318;BME280;56457;52.190;4.440;2022-09-30T01:05:24;100902.25;;;10.88;100.00
69318;BME280;56457;52.190;4.440;2022-09-30T01:06:26;100902.22;;;10.87;100.00
69318;BME280;56457;52.190;4.440;2022-09-30T01:07:26;100906.63;;;10.85;100.00
69318;BME280;56457;52.190;4.440;2022-09-30T01:08:29;100898.75;;;10.86;100.00
69318;BME280;56457;52.190;4.440;2022-09-30T01:09:33;100901.38;;;10.85;100.00
69318;BME280;56457;52.190;4.440;2022-09-30T01:10:34;100898.78;;;10.83;100.00
69318;BME280;56457;52.190;4.440;2022-09-30T01:11:36;100906.63;;;10.85;100.00
69318;BME280;56457;52.190;4.440;2022-09-30T01:12:36;100903.16;;;10.79;100.00
69318;BME280;56457;52.190;4.440;2022-09-30T01:13:38;100918.06;;;10.77;100.00
69318;BME280;56457;52.190;4.440;2022-09-30T01:14:41;100911.06;;;10.76;100.00
69318;BME280;56457;52.190;4.440;2022-09-30T01:17:43;100914.56;;;10.74;100.00
69318;BME280;56457;52.190;4.440;2022-09-30T01:22:32;100918.22;;;10.58;100.00
69318;BME280;56457;52.190;4.440;2022-09-30T01:28:26;100923.53;;;10.45;100.00
69318;BME280;56457;52.190;4.440;2022-09-30T01:34:52;100925.31;;;10.43;100.00
69318;BME280;56457;52.190;4.440;2022-09-30T01:41:03;100924.44;;;10.37;100.00
69318;BME280;56457;52.190;4.440;2022-09-30T01:44:08;100921.03;;;10.26;100.00
69318;BME280;56457;52.190;4.440;2022-09-30T01:45:18;100911.38;;;10.24;100.00
69318;BME280;56457;52.190;4.440;2022-09-30T01:46:38;100908.78;;;10.23;100.00
69318;BME280;56457;52.190;4.440;2022-09-30T01:47:50;100910.53;;;10.21;100.00
69318;BME280;56457;52.190;4.440;2022-09-30T01:50:32;100900.09;;;10.07;100.00
69318;BME280;56457;52.190;4.440;2022-09-30T01:54:41;100907.06;;;10.10;100.00
69318;BME280;56457;52.190;4.440;2022-09-30T01:55:49;100903.59;;;10.09;100.00
69318;BME280;56457;52.190;4.440;2022-09-30T01:56:58;100906.19;;;10.12;100.00
69318;BME280;56457;52.190;4.440;2022-09-30T01:59:41;100901.81;;;10.14;100.00
69318;BME280;56457;52.190;4.440;2022-09-30T02:00:48;100907.06;;;10.14;100.00
69318;BME280;56457;52.190;4.440;2022-09-30T02:02:01;100906.19;;;10.14;100.00
69318;BME280;56457;52.190;4.440;2022-09-30T02:03:05;100903.59;;;10.09;100.00
69318;BME280;56457;52.190;4.440;2022-09-30T02:04:12;100902.72;;;10.04;100.00
69318;BME280;56457;52.190;4.440;2022-09-30T02:05:19;100907.09;;;10.05;100.00
69318;BME280;56457;52.190;4.440;2022-09-30T02:06:25;100900.09;;;10.06;100.00
69318;BME280;56457;52.190;4.440;2022-09-30T02:07:37;100899.22;;;10.08;100.00
69318;BME280;56457;52.190;4.440;2022-09-30T02:08:56;100907.94;;;10.10;100.00
69318;BME280;56457;52.190;4.440;2022-09-30T02:10:06;100911.41;;;10.12;100.00
69318;BME280;56457;52.190;4.440;2022-09-30T02:11:17;100905.31;;;10.13;100.00
69318;BME280;56457;52.190;4.440;2022-09-30T02:12:24;100915.78;;;10.16;100.00
69318;BME280;56457;52.190;4.440;2022-09-30T02:13:49;100914.00;;;10.18;100.00
69318;BME280;56457;52.190;4.440;2022-09-30T02:15:05;100914.03;;;10.15;100.00
69318;BME280;56457;52.190;4.440;2022-09-30T02:16:11;100911.41;;;10.15;100.00
69318;BME280;56457;52.190;4.440;2022-09-30T02:17:45;100914.06;;;10.11;100.00
69318;BME280;56457;52.190;4.440;2022-09-30T02:18:49;100911.47;;;10.05;100.00
69318;BME280;56457;52.190;4.440;2022-09-30T02:19:59;100908.00;;;10.01;100.00
69318;BME280;56457;52.190;4.440;2022-09-30T02:21:02;100911.50;;;9.95;100.00
69318;BME280;56457;52.190;4.440;2022-09-30T02:22:20;100914.13;;;9.97;100.00
69318;BME280;56457;52.190;4.440;2022-09-30T02:23:26;100919.38;;;9.97;100.00
69318;BME280;56457;52.190;4.440;2022-09-30T02:24:32;100918.47;;;9.99;100.00
69318;BME280;56457;52.190;4.440;2022-09-30T02:25:39;100921.09;;;9.98;100.00
69318;BME280;56457;52.190;4.440;2022-09-30T02:26:43;100915.88;;;9.93;100.00
69318;BME280;56457;52.190;4.440;2022-09-30T02:27:50;100921.97;;;9.97;100.00
69318;BME280;56457;52.190;4.440;2022-09-30T02:28:59;100918.47;;;10.01;100.00
69318;BME280;56457;52.190;4.440;2022-09-30T02:30:03;100919.34;;;10.03;100.00
69318;BME280;56457;52.190;4.440;2022-09-30T02:31:08;100921.97;;;10.02;100.00
69318;BME280;56457;52.190;4.440;2022-09-30T02:32:15;100925.47;;;10.02;100.00
69318;BME280;56457;52.190;4.440;2022-09-30T02:33:24;100925.47;;;10.01;100.00
69318;BME280;56457;52.190;4.440;2022-09-30T02:34:36;100925.47;;;9.97;100.00
69318;BME280;56457;52.190;4.440;2022-09-30T02:35:46;100933.34;;;9.97;100.00
69318;BME280;56457;52.190;4.440;2022-09-30T02:38:23;100932.47;;;9.95;100.00
69318;BME280;56457;52.190;4.440;2022-09-30T02:39:35;100935.97;;;9.94;100.00
69318;BME280;56457;52.190;4.440;2022-09-30T02:41:47;100931.63;;;9.95;100.00
69318;BME280;56457;52.190;4.440;2022-09-30T02:42:49;100933.34;;;9.93;100.00
69318;BME280;56457;52.190;4.440;2022-09-30T02:43:50;100927.25;;;9.94;100.00
69318;BME280;56457;52.190;4.440;2022-09-30T02:44:52;100931.63;;;9.95;100.00
69318;BME280;56457;52.190;4.440;2022-09-30T02:47:10;100930.75;;;9.91;100.00
69318;BME280;56457;52.190;4.440;2022-09-30T02:48:29;100919.41;;;9.89;100.00
69318;BME280;56457;52.190;4.440;2022-09-30T02:50:19;100917.66;;;9.87;100.00
69318;BME280;56457;52.190;4.440;2022-09-30T02:53:42;100919.41;;;9.88;100.00
69318;BME280;56457;52.190;4.440;2022-09-30T02:56:23;100922.88;;;9.91;100.00
69318;BME280;56457;52.190;4.440;2022-09-30T02:58:40;100927.25;;;9.92;100.00
69318;BME280;56457;52.190;4.440;2022-09-30T02:59:42;100928.97;;;9.93;100.00
69318;BME280;56457;52.190;4.440;2022-09-30T03:00:43;100922.00;;;9.91;100.00
69318;BME280;56457;52.190;4.440;2022-09-30T03:01:43;100926.41;;;9.89;100.00
69318;BME280;56457;52.190;4.440;2022-09-30T03:02:45;100924.63;;;9.86;100.00
69318;BME280;56457;52.190;4.440;2022-09-30T03:03:57;100922.88;;;9.87;100.00
69318;BME280;56457;52.190;4.440;2022-09-30T03:04:58;100929.91;;;9.88;100.00
69318;BME280;56457;52.190;4.440;2022-09-30T03:05:59;100926.41;;;9.89;100.00
69318;BME280;56457;52.190;4.440;2022-09-30T03:07:00;100934.25;;;9.89;100.00
69318;BME280;56457;52.190;4.440;2022-09-30T03:08:00;100934.22;;;9.87;100.00
69318;BME280;56457;52.190;4.440;2022-09-30T03:09:02;100931.63;;;9.87;100.00
69318;BME280;56457;52.190;4.440;2022-09-30T03:10:12;100925.53;;;9.88;100.00
69318;BME280;56457;52.190;4.440;2022-09-30T03:11:21;100933.38;;;9.90;100.00
69318;BME280;56457;52.190;4.440;2022-09-30T03:15:28;100933.38;;;9.87;100.00
69318;BME280;56457;52.190;4.440;2022-09-30T03:16:55;100938.63;;;9.85;100.00
69318;BME280;56457;52.190;4.440;2022-09-30T03:28:40;100956.09;;;9.80;100.00
69318;BME280;56457;52.190;4.440;2022-09-30T03:29:59;100955.25;;;9.83;100.00
69318;BME280;56457;52.190;4.440;2022-09-30T03:31:03;100961.34;;;9.85;100.00
69318;BME280;56457;52.190;4.440;2022-09-30T03:33:28;100963.97;;;9.83;100.00
69318;BME280;56457;52.190;4.440;2022-09-30T03:34:51;100959.59;;;9.79;100.00
69318;BME280;56457;52.190;4.440;2022-09-30T03:36:04;100959.63;;;9.71;100.00
69318;BME280;56457;52.190;4.440;2022-09-30T03:41:37;100964.00;;;9.65;100.00
69318;BME280;56457;52.190;4.440;2022-09-30T03:42:44;100961.38;;;9.65;100.00
69318;BME280;56457;52.190;4.440;2022-09-30T03:45:15;100960.50;;;9.70;100.00
69318;BME280;56457;52.190;4.440;2022-09-30T03:46:23;100946.53;;;9.65;100.00
69318;BME280;56457;52.190;4.440;2022-09-30T03:47:26;100952.66;;;9.60;100.00
69318;BME280;56457;52.190;4.440;2022-09-30T03:48:32;100952.66;;;9.55;100.00
69318;BME280;56457;52.190;4.440;2022-09-30T03:49:52;100957.91;;;9.58;100.00
69318;BME280;56457;52.190;4.440;2022-09-30T03:50:55;100962.25;;;9.61;100.00
69318;BME280;56457;52.190;4.440;2022-09-30T03:51:56;100963.13;;;9.66;100.00
69318;BME280;56457;52.190;4.440;2022-09-30T03:52:59;100959.63;;;9.67;100.00
69318;BME280;56457;52.190;4.440;2022-09-30T03:54:00;100961.38;;;9.71;100.00
69318;BME280;56457;52.190;4.440;2022-09-30T03:55:03;100964.00;;;9.69;100.00
69318;BME280;56457;52.190;4.440;2022-09-30T03:56:04;100964.00;;;9.71;100.00
69318;BME280;56457;52.190;4.440;2022-09-30T03:57:04;100960.53;;;9.69;100.00
69318;BME280;56457;52.190;4.440;2022-09-30T03:58:05;100964.88;;;9.70;100.00
69318;BME280;56457;52.190;4.440;2022-09-30T03:59:09;100963.13;;;9.70;100.00
69318;BME280;56457;52.190;4.440;2022-09-30T04:00:12;100954.38;;;9.71;100.00
69318;BME280;56457;52.190;4.440;2022-09-30T04:01:18;100963.97;;;9.74;100.00
69318;BME280;56457;52.190;4.440;2022-09-30T04:02:20;100964.00;;;9.73;100.00
69318;BME280;56457;52.190;4.440;2022-09-30T04:03:21;100963.09;;;9.74;100.00
69318;BME280;56457;52.190;4.440;2022-09-30T04:04:22;100964.00;;;9.76;100.00
69318;BME280;56457;52.190;4.440;2022-09-30T04:05:22;100963.97;;;9.74;100.00
69318;BME280;56457;52.190;4.440;2022-09-30T04:06:23;100970.09;;;9.78;100.00
69318;BME280;56457;52.190;4.440;2022-09-30T04:07:24;100970.09;;;9.79;100.00
69318;BME280;56457;52.190;4.440;2022-09-30T04:08:24;100964.88;;;9.76;100.00
69318;BME280;56457;52.190;4.440;2022-09-30T04:09:26;100964.84;;;9.75;100.00
69318;BME280;56457;52.190;4.440;2022-09-30T04:10:26;100968.34;;;9.74;100.00
69318;BME280;56457;52.190;4.440;2022-09-30T04:11:26;100965.72;;;9.77;100.00
69318;BME280;56457;52.190;4.440;2022-09-30T04:12:27;100961.34;;;9.74;100.00
69318;BME280;56457;52.190;4.440;2022-09-30T04:13:27;100965.75;;;9.72;100.00
69318;BME280;56457;52.190;4.440;2022-09-30T04:14:28;100966.63;;;9.71;100.00
69318;BME280;56457;52.190;4.440;2022-09-30T04:15:28;100970.09;;;9.71;100.00
69318;BME280;56457;52.190;4.440;2022-09-30T04:16:30;100969.25;;;9.69;100.00
69318;BME280;56457;52.190;4.440;2022-09-30T04:17:30;100971.88;;;9.69;100.00
69318;BME280;56457;52.190;4.440;2022-09-30T04:18:31;100968.38;;;9.70;100.00
69318;BME280;56457;52.190;4.440;2022-09-30T04:19:32;100976.22;;;9.74;100.00
69318;BME280;56457;52.190;4.440;2022-09-30T04:20:37;100976.22;;;9.72;100.00
69318;BME280;56457;52.190;4.440;2022-09-30T04:21:38;100973.59;;;9.70;100.00
69318;BME280;56457;52.190;4.440;2022-09-30T04:22:39;100971.84;;;9.71;100.00
69318;BME280;56457;52.190;4.440;2022-09-30T04:23:41;100976.22;;;9.72;100.00
69318;BME280;56457;52.190;4.440;2022-09-30T04:24:42;100975.34;;;9.68;100.00
69318;BME280;56457;52.190;4.440;2022-09-30T04:25:46;100973.63;;;9.64;100.00
69318;BME280;56457;52.190;4.440;2022-09-30T04:26:50;100976.25;;;9.63;100.00
69318;BME280;56457;52.190;4.440;2022-09-30T04:27:51;100972.72;;;9.67;100.00
69318;BME280;56457;52.190;4.440;2022-09-30T04:28:51;100967.47;;;9.68;100.00
69318;BME280;56457;52.190;4.440;2022-09-30T04:29:52;100980.59;;;9.71;100.00
69318;BME280;56457;52.190;4.440;2022-09-30T04:30:52;100974.47;;;9.73;100.00
69318;BME280;56457;52.190;4.440;2022-09-30T04:31:53;100974.44;;;9.74;100.00
69318;BME280;56457;52.190;4.440;2022-09-30T04:32:53;100974.44;;;9.74;100.00
69318;BME280;56457;52.190;4.440;2022-09-30T04:33:55;100969.22;;;9.74;100.00
69318;BME280;56457;52.190;4.440;2022-09-30T04:34:56;100971.84;;;9.68;100.00
69318;BME280;56457;52.190;4.440;2022-09-30T04:35:58;100972.75;;;9.65;100.00
69318;BME280;56457;52.190;4.440;2022-09-30T04:36:59;100972.75;;;9.64;100.00
69318;BME280;56457;52.190;4.440;2022-09-30T04:37:59;100981.50;;;9.63;100.00
69318;BME280;56457;52.190;4.440;2022-09-30T04:39:00;100975.38;;;9.59;100.00
69318;BME280;56457;52.190;4.440;2022-09-30T04:40:01;100980.59;;;9.56;100.00
69318;BME280;56457;52.190;4.440;2022-09-30T04:41:03;100984.97;;;9.59;100.00
69318;BME280;56457;52.190;4.440;2022-09-30T04:42:07;100981.47;;;9.60;100.00
69318;BME280;56457;52.190;4.440;2022-09-30T04:43:07;100988.44;;;9.62;100.00
69318;BME280;56457;52.190;4.440;2022-09-30T04:44:08;100990.19;;;9.66;100.00
69318;BME280;56457;52.190;4.440;2022-09-30T04:45:10;100983.19;;;9.68;100.00
69318;BME280;56457;52.190;4.440;2022-09-30T04:46:16;100985.84;;;9.70;100.00
69318;BME280;56457;52.190;4.440;2022-09-30T04:47:17;100984.97;;;9.71;100.00
69318;BME280;56457;52.190;4.440;2022-09-30T04:48:17;100991.06;;;9.71;100.00
69318;BME280;56457;52.190;4.440;2022-09-30T04:49:18;100989.31;;;9.72;100.00
69318;BME280;56457;52.190;4.440;2022-09-30T04:50:18;100990.22;;;9.69;100.00
69318;BME280;56457;52.190;4.440;2022-09-30T04:51:20;100989.31;;;9.67;100.00
69318;BME280;56457;52.190;4.440;2022-09-30T04:52:21;100989.31;;;9.70;100.00
69318;BME280;56457;52.190;4.440;2022-09-30T04:53:21;100994.53;;;9.74;100.00
69318;BME280;56457;52.190;4.440;2022-09-30T04:54:21;100998.91;;;9.73;100.00
69318;BME280;56457;52.190;4.440;2022-09-30T04:55:22;100991.06;;;9.73;100.00
69318;BME280;56457;52.190;4.440;2022-09-30T04:56:23;100994.56;;;9.75;100.00
69318;BME280;56457;52.190;4.440;2022-09-30T04:57:25;100995.44;;;9.77;100.00
69318;BME280;56457;52.190;4.440;2022-09-30T04:58:29;100998.03;;;9.77;100.00
69318;BME280;56457;52.190;4.440;2022-09-30T04:59:31;101003.28;;;9.79;100.00
69318;BME280;56457;52.190;4.440;2022-09-30T05:00:32;101002.41;;;9.78;100.00
69318;BME280;56457;52.190;4.440;2022-09-30T05:01:33;100998.03;;;9.79;100.00
69318;BME280;56457;52.190;4.440;2022-09-30T05:02:33;100991.91;;;9.80;100.00
69318;BME280;56457;52.190;4.440;2022-09-30T05:03:34;100991.06;;;9.78;100.00
69318;BME280;56457;52.190;4.440;2022-09-30T05:04:35;100997.16;;;9.80;100.00
69318;BME280;56457;52.190;4.440;2022-09-30T05:05:35;100995.41;;;9.83;100.00
69318;BME280;56457;52.190;4.440;2022-09-30T05:06:36;101001.50;;;9.87;100.00
69318;BME280;56457;52.190;4.440;2022-09-30T05:07:37;101003.28;;;9.88;100.00
69318;BME280;56457;52.190;4.440;2022-09-30T05:08:37;101000.63;;;9.89;100.00
69318;BME280;56457;52.190;4.440;2022-09-30T05:09:38;101001.50;;;9.91;100.00
69318;BME280;56457;52.190;4.440;2022-09-30T05:10:38;101002.38;;;9.96;100.00
69318;BME280;56457;52.190;4.440;2022-09-30T05:11:39;100999.75;;;10.01;100.00
69318;BME280;56457;52.190;4.440;2022-09-30T05:12:40;101001.47;;;10.04;100.00
69318;BME280;56457;52.190;4.440;2022-09-30T05:13:40;100999.72;;;10.09;100.00
69318;BME280;56457;52.190;4.440;2022-09-30T05:14:41;100995.31;;;10.12;100.00
69318;BME280;56457;52.190;4.440;2022-09-30T05:15:41;100997.91;;;10.18;100.00
69318;BME280;56457;52.190;4.440;2022-09-30T05:16:44;100999.66;;;10.21;100.00
69318;BME280;56457;52.190;4.440;2022-09-30T05:17:47;101002.31;;;10.26;100.00
69318;BME280;56457;52.190;4.440;2022-09-30T05:18:48;100998.78;;;10.28;100.00
69318;BME280;56457;52.190;4.440;2022-09-30T05:19:49;100999.66;;;10.32;100.00
69318;BME280;56457;52.190;4.440;2022-09-30T05:20:50;100998.78;;;10.31;100.00
69318;BME280;56457;52.190;4.440;2022-09-30T05:21:51;100996.16;;;10.33;100.00
69318;BME280;56457;52.190;4.440;2022-09-30T05:22:55;101003.13;;;10.35;100.00
69318;BME280;56457;52.190;4.440;2022-09-30T05:23:55;100997.91;;;10.34;100.00
69318;BME280;56457;52.190;4.440;2022-09-30T05:24:57;101004.88;;;10.38;100.00
69318;BME280;56457;52.190;4.440;2022-09-30T05:25:58;100996.13;;;10.40;100.00
69318;BME280;56457;52.190;4.440;2022-09-30T05:27:01;101003.97;;;10.45;100.00
69318;BME280;56457;52.190;4.440;2022-09-30T05:28:01;100998.69;;;10.51;100.00
69318;BME280;56457;52.190;4.440;2022-09-30T05:29:02;101002.22;;;10.50;100.00
69318;BME280;56457;52.190;4.440;2022-09-30T05:30:03;101001.28;;;10.56;100.00
69318;BME280;56457;52.190;4.440;2022-09-30T05:31:04;100997.75;;;10.60;100.00
69318;BME280;56457;52.190;4.440;2022-09-30T05:32:05;100999.50;;;10.61;100.00
69318;BME280;56457;52.190;4.440;2022-09-30T05:33:06;101000.38;;;10.63;100.00
69318;BME280;56457;52.190;4.440;2022-09-30T05:34:07;100998.59;;;10.66;100.00
69318;BME280;56457;52.190;4.440;2022-09-30T05:35:08;101002.97;;;10.69;100.00
69318;BME280;56457;52.190;4.440;2022-09-30T05:36:11;100999.47;;;10.70;100.00
69318;BME280;56457;52.190;4.440;2022-09-30T05:37:12;101002.94;;;10.73;100.00
69318;BME280;56457;52.190;4.440;2022-09-30T05:38:12;100995.03;;;10.78;100.00
69318;BME280;56457;52.190;4.440;2022-09-30T05:39:13;100996.75;;;10.81;100.00
69318;BME280;56457;52.190;4.440;2022-09-30T05:40:13;101001.13;;;10.85;100.00
69318;BME280;56457;52.190;4.440;2022-09-30T05:41:14;101000.25;;;10.87;100.00
69318;BME280;56457;52.190;4.440;2022-09-30T05:42:14;101001.06;;;10.91;100.00
69318;BME280;56457;52.190;4.440;2022-09-30T05:43:15;100991.47;;;10.90;100.00
69318;BME280;56457;52.190;4.440;2022-09-30T05:44:15;100992.34;;;10.89;100.00
69318;BME280;56457;52.190;4.440;2022-09-30T05:45:16;100988.00;;;10.85;100.00
69318;BME280;56457;52.190;4.440;2022-09-30T05:46:18;100996.75;;;10.88;100.00
69318;BME280;56457;52.190;4.440;2022-09-30T05:47:18;100994.97;;;10.89;100.00
69318;BME280;56457;52.190;4.440;2022-09-30T05:48:19;100994.97;;;10.89;100.00
69318;BME280;56457;52.190;4.440;2022-09-30T05:49:19;100998.47;;;10.86;100.00
69318;BME280;56457;52.190;4.440;2022-09-30T05:50:22;100995.81;;;10.92;100.00
69318;BME280;56457;52.190;4.440;2022-09-30T05:51:22;100991.44;;;10.93;100.00
69318;BME280;56457;52.190;4.440;2022-09-30T05:52:23;101001.94;;;10.96;100.00
69318;BME280;56457;52.190;4.440;2022-09-30T05:53:24;101002.78;;;11.01;100.00
69318;BME280;56457;52.190;4.440;2022-09-30T05:54:25;100998.38;;;11.06;100.00
69318;BME280;56457;52.190;4.440;2022-09-30T05:55:25;101004.47;;;11.08;100.00
69318;BME280;56457;52.190;4.440;2022-09-30T05:56:26;101007.06;;;11.11;100.00
69318;BME280;56457;52.190;4.440;2022-09-30T05:57:27;101010.56;;;11.10;100.00
69318;BME280;56457;52.190;4.440;2022-09-30T05:58:28;101014.94;;;11.14;100.00
69318;BME280;56457;52.190;4.440;2022-09-30T05:59:28;101006.13;;;11.20;100.00
69318;BME280;56457;52.190;4.440;2022-09-30T06:00:29;101011.34;;;11.24;100.00
69318;BME280;56457;52.190;4.440;2022-09-30T06:01:30;101015.66;;;11.30;100.00
69318;BME280;56457;52.190;4.440;2022-09-30T06:02:30;101020.03;;;11.29;100.00
69318;BME280;56457;52.190;4.440;2022-09-30T06:03:31;101020.09;;;11.26;100.00
69318;BME280;56457;52.190;4.440;2022-09-30T06:04:31;101019.19;;;11.29;100.00
69318;BME280;56457;52.190;4.440;2022-09-30T06:05:31;101017.41;;;11.32;100.00
69318;BME280;56457;52.190;4.440;2022-09-30T06:06:32;101010.34;;;11.41;100.00
69318;BME280;56457;52.190;4.440;2022-09-30T06:07:34;101015.56;;;11.42;100.00
69318;BME280;56457;52.190;4.440;2022-09-30T06:08:34;101015.56;;;11.42;100.00
69318;BME280;56457;52.190;4.440;2022-09-30T06:09:35;101012.94;;;11.44;100.00
69318;BME280;56457;52.190;4.440;2022-09-30T06:10:35;101025.19;;;11.45;100.00
69318;BME280;56457;52.190;4.440;2022-09-30T06:11:39;101012.94;;;11.44;100.00
69318;BME280;56457;52.190;4.440;2022-09-30T06:12:41;101022.56;;;11.42;100.00
69318;BME280;56457;52.190;4.440;2022-09-30T06:13:43;101017.41;;;11.32;100.00
69318;BME280;56457;52.190;4.440;2022-09-30T06:14:43;101031.44;;;11.28;100.00
69318;BME280;56457;52.190;4.440;2022-09-30T06:15:53;101029.72;;;11.26;100.00
69318;BME280;56457;52.190;4.440;2022-09-30T06:16:56;101024.50;;;11.24;100.00
69318;BME280;56457;52.190;4.440;2022-09-30T06:17:56;101029.69;;;11.29;100.00
69318;BME280;56457;52.190;4.440;2022-09-30T06:18:57;101032.31;;;11.32;100.00
69318;BME280;56457;52.190;4.440;2022-09-30T06:19:58;101023.56;;;11.31;100.00
69318;BME280;56457;52.190;4.440;2022-09-30T06:21:02;101028.75;;;11.35;100.00
69318;BME280;56457;52.190;4.440;2022-09-30T06:22:03;101024.44;;;11.30;100.00
69318;BME280;56457;52.190;4.440;2022-09-30T06:23:03;101021.81;;;11.30;100.00
69318;BME280;56457;52.190;4.440;2022-09-30T06:24:04;101021.78;;;11.33;100.00
69318;BME280;56457;52.190;4.440;2022-09-30T06:25:05;101027.03;;;11.33;100.00
69318;BME280;56457;52.190;4.440;2022-09-30T06:26:07;101024.41;;;11.33;100.00
69318;BME280;56457;52.190;4.440;2022-09-30T06:27:07;101030.53;;;11.32;100.00
69318;BME280;56457;52.190;4.440;2022-09-30T06:28:08;101028.81;;;11.31;100.00